sensor_id;sensor_type;location;lat;lon;timestamp;pressure;altitude;pressure_sealevel;temperature;humidity
74329;BME280;62749;51.982;5.916;2023-04-28T00:01:52;101188.66;;;10.09;48.52
74329;BME280;62749;51.982;5.916;2023-04-28T00:04:21;101171.50;;;9.96;48.69
74329;BME280;62749;51.982;5.916;2023-04-28T00:06:51;101167.13;;;9.95;48.68
74329;BME280;62749;51.982;5.916;2023-04-28T00:09:20;101174.06;;;9.97;48.73
74329;BME280;62749;51.982;5.916;2023-04-28T00:11:52;101163.91;;;9.87;49.13
74329;BME280;62749;51.982;5.916;2023-04-28T00:14:22;101166.41;;;9.90;48.98
74329;BME280;62749;51.982;5.916;2023-04-28T00:16:51;101172.06;;;9.79;49.29
74329;BME280;62749;51.982;5.916;2023-04-28T00:19:22;101173.78;;;9.80;49.62
74329;BME280;62749;51.982;5.916;2023-04-28T00:21:51;101174.34;;;9.90;49.29
74329;BME280;62749;51.982;5.916;2023-04-28T00:24:21;101164.69;;;9.89;49.00
74329;BME280;62749;51.982;5.916;2023-04-28T00:26:53;101152.41;;;9.88;49.67
74329;BME280;62749;51.982;5.916;2023-04-28T00:29:22;101156.41;;;9.73;49.38
74329;BME280;62749;51.982;5.916;2023-04-28T00:31:52;101161.44;;;9.80;49.81
74329;BME280;62749;51.982;5.916;2023-04-28T00:34:21;101153.63;;;9.77;49.77
74329;BME280;62749;51.982;5.916;2023-04-28T00:36:51;101154.53;;;9.76;49.37
74329;BME280;62749;51.982;5.916;2023-04-28T00:39:20;101148.25;;;9.80;49.62
74329;BME280;62749;51.982;5.916;2023-04-28T00:41:55;101140.56;;;9.74;49.69
74329;BME280;62749;51.982;5.916;2023-04-28T00:44:24;101133.66;;;9.70;50.34
74329;BME280;62749;51.982;5.916;2023-04-28T00:46:54;101142.06;;;9.81;50.18
74329;BME280;62749;51.982;5.916;2023-04-28T00:49:24;101134.47;;;9.72;49.86
74329;BME280;62749;51.982;5.916;2023-04-28T00:51:53;101121.31;;;9.71;49.81
74329;BME280;62749;51.982;5.916;2023-04-28T00:54:23;101117.97;;;9.65;50.01
74329;BME280;62749;51.982;5.916;2023-04-28T00:56:55;101107.38;;;9.67;50.30
74329;BME280;62749;51.982;5.916;2023-04-28T00:59:24;101108.91;;;9.74;50.65
74329;BME280;62749;51.982;5.916;2023-04-28T01:01:54;101103.91;;;9.65;50.47
74329;BME280;62749;51.982;5.916;2023-04-28T01:04:26;101092.44;;;9.66;50.38
74329;BME280;62749;51.982;5.916;2023-04-28T01:06:57;101096.81;;;9.67;50.59
74329;BME280;62749;51.982;5.916;2023-04-28T01:09:28;101088.91;;;9.67;51.20
74329;BME280;62749;51.982;5.916;2023-04-28T01:12:00;101087.91;;;9.70;50.47
74329;BME280;62749;51.982;5.916;2023-04-28T01:14:30;101092.03;;;9.78;51.22
74329;BME280;62749;51.982;5.916;2023-04-28T01:17:00;101095.72;;;9.74;52.09
74329;BME280;62749;51.982;5.916;2023-04-28T01:19:30;101098.34;;;9.74;53.58
74329;BME280;62749;51.982;5.916;2023-04-28T01:21:59;101090.38;;;9.49;54.22
74329;BME280;62749;51.982;5.916;2023-04-28T01:24:32;101093.09;;;9.46;55.38
74329;BME280;62749;51.982;5.916;2023-04-28T01:27:02;101096.13;;;9.33;56.85
74329;BME280;62749;51.982;5.916;2023-04-28T01:29:31;101088.19;;;9.35;57.49
74329;BME280;62749;51.982;5.916;2023-04-28T01:32:00;101086.47;;;9.34;58.70
74329;BME280;62749;51.982;5.916;2023-04-28T01:34:30;101095.47;;;9.27;58.51
74329;BME280;62749;51.982;5.916;2023-04-28T01:36:59;101089.09;;;9.05;58.47
74329;BME280;62749;51.982;5.916;2023-04-28T01:39:28;101094.94;;;9.15;59.53
74329;BME280;62749;51.982;5.916;2023-04-28T01:42:00;101086.31;;;9.10;59.11
74329;BME280;62749;51.982;5.916;2023-04-28T01:44:30;101083.25;;;8.96;59.17
74329;BME280;62749;51.982;5.916;2023-04-28T01:46:59;101076.34;;;8.92;60.28
74329;BME280;62749;51.982;5.916;2023-04-28T01:49:29;101072.59;;;8.99;60.78
74329;BME280;62749;51.982;5.916;2023-04-28T01:51:58;101073.50;;;8.98;59.84
74329;BME280;62749;51.982;5.916;2023-04-28T01:54:27;101077.94;;;8.97;60.75
74329;BME280;62749;51.982;5.916;2023-04-28T01:56:59;101075.44;;;8.93;60.37
74329;BME280;62749;51.982;5.916;2023-04-28T01:59:29;101077.16;;;8.94;59.74
74329;BME280;62749;51.982;5.916;2023-04-28T02:01:58;101066.78;;;8.89;60.30
74329;BME280;62749;51.982;5.916;2023-04-28T02:04:28;101061.31;;;8.95;61.03
74329;BME280;62749;51.982;5.916;2023-04-28T02:06:57;101062.56;;;9.12;61.58
74329;BME280;62749;51.982;5.916;2023-04-28T02:09:27;101057.38;;;9.09;59.92
74329;BME280;62749;51.982;5.916;2023-04-28T02:11:56;101049.72;;;9.01;60.19
74329;BME280;62749;51.982;5.916;2023-04-28T02:14:30;101049.72;;;9.01;60.78
74329;BME280;62749;51.982;5.916;2023-04-28T02:17:00;101052.19;;;9.05;60.11
74329;BME280;62749;51.982;5.916;2023-04-28T02:19:30;101054.34;;;9.21;61.22
74329;BME280;62749;51.982;5.916;2023-04-28T02:22:00;101039.16;;;9.01;59.12
74329;BME280;62749;51.982;5.916;2023-04-28T02:24:29;101033.81;;;9.04;60.27
74329;BME280;62749;51.982;5.916;2023-04-28T02:26:59;101042.44;;;9.09;60.52
74329;BME280;62749;51.982;5.916;2023-04-28T02:29:31;101028.47;;;9.05;59.94
74329;BME280;62749;51.982;5.916;2023-04-28T02:32:00;101031.00;;;9.09;60.53
74329;BME280;62749;51.982;5.916;2023-04-28T02:34:30;101029.53;;;9.00;59.23
74329;BME280;62749;51.982;5.916;2023-04-28T02:36:59;101016.72;;;8.89;59.57
74329;BME280;62749;51.982;5.916;2023-04-28T02:39:29;101023.50;;;8.96;59.64
74329;BME280;62749;51.982;5.916;2023-04-28T02:41:58;101025.41;;;8.91;59.76
74329;BME280;62749;51.982;5.916;2023-04-28T02:44:33;101024.66;;;8.87;59.09
74329;BME280;62749;51.982;5.916;2023-04-28T02:47:02;101020.25;;;8.88;59.43
74329;BME280;62749;51.982;5.916;2023-04-28T02:49:32;101019.13;;;8.97;60.17
74329;BME280;62749;51.982;5.916;2023-04-28T02:52:01;101010.38;;;8.95;59.13
74329;BME280;62749;51.982;5.916;2023-04-28T02:54:31;101020.06;;;8.94;59.62
74329;BME280;62749;51.982;5.916;2023-04-28T02:57:02;101005.97;;;8.95;59.19
74329;BME280;62749;51.982;5.916;2023-04-28T02:59:34;101004.31;;;8.91;59.13
74329;BME280;62749;51.982;5.916;2023-04-28T03:02:03;100989.34;;;8.93;59.34
74329;BME280;62749;51.982;5.916;2023-04-28T03:04:34;100973.69;;;8.88;59.99
74329;BME280;62749;51.982;5.916;2023-04-28T03:07:04;100972.03;;;8.84;59.81
74329;BME280;62749;51.982;5.916;2023-04-28T03:09:34;100972.94;;;8.85;59.20
74329;BME280;62749;51.982;5.916;2023-04-28T03:12:03;100968.56;;;8.84;59.48
74329;BME280;62749;51.982;5.916;2023-04-28T03:14:35;100949.66;;;8.71;59.58
74329;BME280;62749;51.982;5.916;2023-04-28T03:17:05;100964.34;;;8.78;59.20
74329;BME280;62749;51.982;5.916;2023-04-28T03:19:34;100956.34;;;8.81;59.79
74329;BME280;62749;51.982;5.916;2023-04-28T03:22:03;100953.59;;;8.84;59.84
74329;BME280;62749;51.982;5.916;2023-04-28T03:24:33;100952.69;;;8.85;59.04
74329;BME280;62749;51.982;5.916;2023-04-28T03:27:02;100948.63;;;8.75;59.80
74329;BME280;62749;51.982;5.916;2023-04-28T03:29:34;100954.72;;;8.77;59.60
74329;BME280;62749;51.982;5.916;2023-04-28T03:32:04;100948.94;;;8.66;59.25
74329;BME280;62749;51.982;5.916;2023-04-28T03:34:34;100948.13;;;8.64;60.03
74329;BME280;62749;51.982;5.916;2023-04-28T03:37:03;100941.03;;;8.66;59.93
74329;BME280;62749;51.982;5.916;2023-04-28T03:39:33;100945.09;;;8.76;59.73
74329;BME280;62749;51.982;5.916;2023-04-28T03:42:03;100946.63;;;8.83;60.34
74329;BME280;62749;51.982;5.916;2023-04-28T03:44:35;100943.88;;;8.86;59.46
74329;BME280;62749;51.982;5.916;2023-04-28T03:47:04;100947.34;;;8.88;59.64
74329;BME280;62749;51.982;5.916;2023-04-28T03:49:33;100946.59;;;8.85;59.73
74329;BME280;62749;51.982;5.916;2023-04-28T03:52:03;100951.78;;;8.86;59.27
74329;BME280;62749;51.982;5.916;2023-04-28T03:54:32;100938.63;;;8.86;60.05
74329;BME280;62749;51.982;5.916;2023-04-28T03:57:02;100949.56;;;9.01;60.57
74329;BME280;62749;51.982;5.916;2023-04-28T03:59:31;100946.78;;;9.05;59.83
74329;BME280;62749;51.982;5.916;2023-04-28T04:02:03;100936.59;;;8.95;59.86
74329;BME280;62749;51.982;5.916;2023-04-28T04:04:32;100924.34;;;8.94;60.83
74329;BME280;62749;51.982;5.916;2023-04-28T04:07:02;100928.69;;;8.95;60.25
74329;BME280;62749;51.982;5.916;2023-04-28T04:09:32;100930.03;;;8.81;60.23
74329;BME280;62749;51.982;5.916;2023-04-28T04:12:01;100928.69;;;8.95;61.58
74329;BME280;62749;51.982;5.916;2023-04-28T04:14:31;100926.00;;;8.96;60.45
74329;BME280;62749;51.982;5.916;2023-04-28T04:17:03;100910.91;;;9.01;60.86
74329;BME280;62749;51.982;5.916;2023-04-28T04:19:33;100920.75;;;8.96;61.35
74329;BME280;62749;51.982;5.916;2023-04-28T04:22:02;100915.47;;;8.96;61.33
74329;BME280;62749;51.982;5.916;2023-04-28T04:24:31;100923.97;;;9.04;61.46
74329;BME280;62749;51.982;5.916;2023-04-28T04:27:01;100905.09;;;8.92;62.12
74329;BME280;62749;51.982;5.916;2023-04-28T04:29:31;100921.34;;;9.04;62.01
74329;BME280;62749;51.982;5.916;2023-04-28T04:32:03;100909.94;;;9.04;62.09
74329;BME280;62749;51.982;5.916;2023-04-28T04:34:32;100911.81;;;9.00;62.41
74329;BME280;62749;51.982;5.916;2023-04-28T04:37:02;100909.22;;;8.99;62.26
74329;BME280;62749;51.982;5.916;2023-04-28T04:39:31;100900.38;;;9.01;62.45
74329;BME280;62749;51.982;5.916;2023-04-28T04:42:01;100898.66;;;9.00;62.33
74329;BME280;62749;51.982;5.916;2023-04-28T04:44:30;100893.47;;;8.97;62.77
74329;BME280;62749;51.982;5.916;2023-04-28T04:46:59;100880.13;;;9.02;63.06
74329;BME280;62749;51.982;5.916;2023-04-28T04:49:31;100889.69;;;9.06;62.99
74329;BME280;62749;51.982;5.916;2023-04-28T04:52:01;100890.50;;;9.08;63.21
74329;BME280;62749;51.982;5.916;2023-04-28T04:54:32;100878.06;;;9.12;63.52
74329;BME280;62749;51.982;5.916;2023-04-28T04:57:01;100878.06;;;9.12;63.43
74329;BME280;62749;51.982;5.916;2023-04-28T04:59:32;100882.34;;;9.14;63.20
74329;BME280;62749;51.982;5.916;2023-04-28T05:02:01;100878.81;;;9.15;63.70
74329;BME280;62749;51.982;5.916;2023-04-28T05:04:33;100882.09;;;9.22;63.96
74329;BME280;62749;51.982;5.916;2023-04-28T05:07:03;100879.81;;;9.11;64.28
74329;BME280;62749;51.982;5.916;2023-04-28T05:09:32;100877.50;;;9.02;65.20
74329;BME280;62749;51.982;5.916;2023-04-28T05:12:02;100870.16;;;9.12;65.13
74329;BME280;62749;51.982;5.916;2023-04-28T05:14:32;100867.25;;;9.19;65.27
74329;BME280;62749;51.982;5.916;2023-04-28T05:17:01;100858.31;;;9.24;65.92
74329;BME280;62749;51.982;5.916;2023-04-28T05:19:34;100851.34;;;9.23;65.89
74329;BME280;62749;51.982;5.916;2023-04-28T05:22:03;100855.63;;;9.25;66.18
74329;BME280;62749;51.982;5.916;2023-04-28T05:24:33;100859.94;;;9.28;66.98
74329;BME280;62749;51.982;5.916;2023-04-28T05:27:02;100854.44;;;9.34;67.06
74329;BME280;62749;51.982;5.916;2023-04-28T05:29:32;100855.13;;;9.39;67.37
74329;BME280;62749;51.982;5.916;2023-04-28T05:32:01;100851.69;;;9.37;67.15
74329;BME280;62749;51.982;5.916;2023-04-28T05:34:34;100855.13;;;9.39;67.82
74329;BME280;62749;51.982;5.916;2023-04-28T05:37:03;100847.50;;;9.31;68.17
74329;BME280;62749;51.982;5.916;2023-04-28T05:39:32;100850.09;;;9.33;69.08
74329;BME280;62749;51.982;5.916;2023-04-28T05:42:04;100850.09;;;9.33;68.82
74329;BME280;62749;51.982;5.916;2023-04-28T05:44:34;100847.84;;;9.46;69.26
74329;BME280;62749;51.982;5.916;2023-04-28T05:47:03;100848.66;;;9.48;69.58
74329;BME280;62749;51.982;5.916;2023-04-28T05:49:36;100851.00;;;9.32;71.46
74329;BME280;62749;51.982;5.916;2023-04-28T05:52:05;100848.19;;;9.36;71.19
74329;BME280;62749;51.982;5.916;2023-04-28T05:54:34;100848.09;;;9.40;70.91
74329;BME280;62749;51.982;5.916;2023-04-28T05:57:04;100853.94;;;9.48;70.93
74329;BME280;62749;51.982;5.916;2023-04-28T05:59:34;100846.72;;;9.53;71.17
74329;BME280;62749;51.982;5.916;2023-04-28T06:02:03;100846.44;;;9.61;71.05
74329;BME280;62749;51.982;5.916;2023-04-28T06:04:36;100834.66;;;9.70;71.79
74329;BME280;62749;51.982;5.916;2023-04-28T06:07:07;100843.50;;;9.68;71.63
74329;BME280;62749;51.982;5.916;2023-04-28T06:09:36;100868.66;;;9.79;72.39
74329;BME280;62749;51.982;5.916;2023-04-28T06:12:06;100871.91;;;9.86;73.12
74329;BME280;62749;51.982;5.916;2023-04-28T06:14:36;100881.31;;;9.93;74.99
74329;BME280;62749;51.982;5.916;2023-04-28T06:17:05;100881.19;;;9.96;75.57
74329;BME280;62749;51.982;5.916;2023-04-28T06:19:37;100873.28;;;9.96;77.63
74329;BME280;62749;51.982;5.916;2023-04-28T06:22:07;100857.75;;;9.64;78.25
74329;BME280;62749;51.982;5.916;2023-04-28T06:24:36;100863.53;;;9.74;80.53
74329;BME280;62749;51.982;5.916;2023-04-28T06:27:07;100844.66;;;9.61;80.25
74329;BME280;62749;51.982;5.916;2023-04-28T06:29:36;100842.31;;;9.54;82.09
74329;BME280;62749;51.982;5.916;2023-04-28T06:32:05;100844.59;;;9.63;83.70
74329;BME280;62749;51.982;5.916;2023-04-28T06:34:37;100842.88;;;9.62;84.46
74329;BME280;62749;51.982;5.916;2023-04-28T06:37:07;100846.19;;;9.67;85.33
74329;BME280;62749;51.982;5.916;2023-04-28T06:39:36;100839.31;;;9.63;85.49
74329;BME280;62749;51.982;5.916;2023-04-28T06:42:06;100850.00;;;9.60;86.08
74329;BME280;62749;51.982;5.916;2023-04-28T06:44:35;100837.59;;;9.62;87.15
74329;BME280;62749;51.982;5.916;2023-04-28T06:47:04;100847.94;;;9.68;87.27
74329;BME280;62749;51.982;5.916;2023-04-28T06:49:36;100842.88;;;9.62;88.07
74329;BME280;62749;51.982;5.916;2023-04-28T06:52:09;100845.06;;;9.74;88.74
74329;BME280;62749;51.982;5.916;2023-04-28T06:54:39;100848.34;;;9.81;88.44
74329;BME280;62749;51.982;5.916;2023-04-28T06:57:09;100836.72;;;9.85;88.20
74329;BME280;62749;51.982;5.916;2023-04-28T06:59:38;100837.19;;;9.96;88.55
74329;BME280;62749;51.982;5.916;2023-04-28T07:02:09;100837.50;;;10.11;89.28
74329;BME280;62749;51.982;5.916;2023-04-28T07:04:41;100832.28;;;10.09;88.76
74329;BME280;62749;51.982;5.916;2023-04-28T07:07:10;100834.34;;;10.01;89.14
74329;BME280;62749;51.982;5.916;2023-04-28T07:09:40;100834.44;;;10.22;89.54
74329;BME280;62749;51.982;5.916;2023-04-28T07:12:09;100825.03;;;10.37;89.60
74329;BME280;62749;51.982;5.916;2023-04-28T07:14:39;100832.44;;;10.51;88.85
74329;BME280;62749;51.982;5.916;2023-04-28T07:17:08;100836.25;;;10.43;88.74
74329;BME280;62749;51.982;5.916;2023-04-28T07:19:37;100824.22;;;10.58;89.25
74329;BME280;62749;51.982;5.916;2023-04-28T07:22:09;100830.44;;;10.78;89.15
74329;BME280;62749;51.982;5.916;2023-04-28T07:24:39;100831.16;;;10.82;88.23
74329;BME280;62749;51.982;5.916;2023-04-28T07:27:08;100837.13;;;10.87;88.07
74329;BME280;62749;51.982;5.916;2023-04-28T07:29:38;100822.41;;;10.80;87.81
74329;BME280;62749;51.982;5.916;2023-04-28T07:32:08;100822.56;;;10.77;87.84
74329;BME280;62749;51.982;5.916;2023-04-28T07:34:38;100836.31;;;10.85;88.04
74329;BME280;62749;51.982;5.916;2023-04-28T07:37:10;100823.34;;;10.79;87.82
74329;BME280;62749;51.982;5.916;2023-04-28T07:39:39;100820.66;;;11.01;88.00
74329;BME280;62749;51.982;5.916;2023-04-28T07:42:09;100819.31;;;11.11;87.06
74329;BME280;62749;51.982;5.916;2023-04-28T07:44:38;100828.97;;;11.12;86.66
74329;BME280;62749;51.982;5.916;2023-04-28T07:47:08;100826.91;;;11.19;86.04
74329;BME280;62749;51.982;5.916;2023-04-28T07:49:37;100824.81;;;11.27;86.92
74329;BME280;62749;51.982;5.916;2023-04-28T07:52:06;100822.59;;;11.37;86.24
74329;BME280;62749;51.982;5.916;2023-04-28T07:54:39;100827.31;;;11.49;85.96
74329;BME280;62749;51.982;5.916;2023-04-28T07:57:08;100831.63;;;11.52;85.79
74329;BME280;62749;51.982;5.916;2023-04-28T07:59:38;100823.03;;;11.47;85.62
74329;BME280;62749;51.982;5.916;2023-04-28T08:02:07;100817.63;;;11.50;85.72
74329;BME280;62749;51.982;5.916;2023-04-28T08:04:38;100810.34;;;11.55;85.46
74329;BME280;62749;51.982;5.916;2023-04-28T08:07:08;100816.59;;;11.52;85.71
74329;BME280;62749;51.982;5.916;2023-04-28T08:09:40;100817.63;;;11.50;86.20
74329;BME280;62749;51.982;5.916;2023-04-28T08:12:12;100813.34;;;11.47;86.01
74329;BME280;62749;51.982;5.916;2023-04-28T08:14:42;100817.06;;;11.62;86.70
74329;BME280;62749;51.982;5.916;2023-04-28T08:17:11;100808.75;;;11.51;86.38
74329;BME280;62749;51.982;5.916;2023-04-28T08:19:41;100810.75;;;11.46;86.36
74329;BME280;62749;51.982;5.916;2023-04-28T08:22:12;100806.03;;;11.52;87.10
74329;BME280;62749;51.982;5.916;2023-04-28T08:24:44;100810.69;;;11.66;86.58
74329;BME280;62749;51.982;5.916;2023-04-28T08:27:15;100804.41;;;11.88;87.05
74329;BME280;62749;51.982;5.916;2023-04-28T08:29:44;100807.31;;;11.82;85.82
74329;BME280;62749;51.982;5.916;2023-04-28T08:32:14;100803.53;;;11.69;86.20
74329;BME280;62749;51.982;5.916;2023-04-28T08:34:44;100806.59;;;11.78;86.76
74329;BME280;62749;51.982;5.916;2023-04-28T08:37:13;100816.47;;;11.94;86.72
74329;BME280;62749;51.982;5.916;2023-04-28T08:39:45;100810.75;;;11.84;86.35
74329;BME280;62749;51.982;5.916;2023-04-28T08:42:15;100810.25;;;11.95;87.28
74329;BME280;62749;51.982;5.916;2023-04-28T08:44:47;100814.06;;;11.89;86.87
74329;BME280;62749;51.982;5.916;2023-04-28T08:47:20;100810.75;;;11.84;87.00
74329;BME280;62749;51.982;5.916;2023-04-28T08:49:53;100813.91;;;11.92;86.81
74329;BME280;62749;51.982;5.916;2023-04-28T08:52:27;100808.53;;;12.13;86.21
74329;BME280;62749;51.982;5.916;2023-04-28T08:55:05;100818.00;;;11.80;86.41
74329;BME280;62749;51.982;5.916;2023-04-28T08:57:37;100811.66;;;12.04;87.05
74329;BME280;62749;51.982;5.916;2023-04-28T09:00:08;100816.34;;;12.16;86.66
74329;BME280;62749;51.982;5.916;2023-04-28T09:02:38;100818.69;;;12.22;85.85
74329;BME280;62749;51.982;5.916;2023-04-28T09:05:08;100808.66;;;12.29;86.24
74329;BME280;62749;51.982;5.916;2023-04-28T09:07:37;100816.69;;;12.27;85.76
74329;BME280;62749;51.982;5.916;2023-04-28T09:10:20;100804.84;;;12.35;86.44
74329;BME280;62749;51.982;5.916;2023-04-28T09:12:54;100805.41;;;12.41;86.74
74329;BME280;62749;51.982;5.916;2023-04-28T09:15:28;100805.09;;;12.48;86.83
74329;BME280;62749;51.982;5.916;2023-04-28T09:17:58;100811.88;;;12.53;85.57
74329;BME280;62749;51.982;5.916;2023-04-28T09:20:29;100811.06;;;12.34;86.97
74329;BME280;62749;51.982;5.916;2023-04-28T09:23:13;100804.56;;;12.41;87.78
74329;BME280;62749;51.982;5.916;2023-04-28T09:25:58;100805.56;;;12.56;87.45
74329;BME280;62749;51.982;5.916;2023-04-28T09:28:29;100800.88;;;12.43;87.25
74329;BME280;62749;51.982;5.916;2023-04-28T09:30:59;100800.41;;;12.53;87.54
74329;BME280;62749;51.982;5.916;2023-04-28T09:33:29;100799.09;;;12.62;87.03
74329;BME280;62749;51.982;5.916;2023-04-28T09:35:59;100796.94;;;12.70;87.68
74329;BME280;62749;51.982;5.916;2023-04-28T09:38:28;100787.09;;;12.72;87.27
74329;BME280;62749;51.982;5.916;2023-04-28T09:41:01;100783.13;;;12.81;86.87
74329;BME280;62749;51.982;5.916;2023-04-28T09:43:32;100781.63;;;12.75;85.95
74329;BME280;62749;51.982;5.916;2023-04-28T09:46:04;100786.69;;;12.80;86.81
74329;BME280;62749;51.982;5.916;2023-04-28T09:48:35;100783.91;;;12.83;86.36
74329;BME280;62749;51.982;5.916;2023-04-28T09:51:06;100782.13;;;12.83;86.42
74329;BME280;62749;51.982;5.916;2023-04-28T09:53:36;100786.78;;;12.78;86.15
74329;BME280;62749;51.982;5.916;2023-04-28T09:56:09;100789.53;;;12.77;86.07
74329;BME280;62749;51.982;5.916;2023-04-28T09:58:39;100781.97;;;12.69;86.70
74329;BME280;62749;51.982;5.916;2023-04-28T10:01:11;100787.34;;;12.67;86.90
74329;BME280;62749;51.982;5.916;2023-04-28T10:03:41;100786.63;;;12.64;87.36
74329;BME280;62749;51.982;5.916;2023-04-28T10:06:12;100785.63;;;12.66;87.73
74329;BME280;62749;51.982;5.916;2023-04-28T10:08:41;100775.41;;;12.76;88.10
74329;BME280;62749;51.982;5.916;2023-04-28T10:11:16;100779.22;;;12.70;87.29
74329;BME280;62749;51.982;5.916;2023-04-28T10:13:46;100780.66;;;12.78;88.09
74329;BME280;62749;51.982;5.916;2023-04-28T10:16:16;100772.28;;;12.85;88.17
74329;BME280;62749;51.982;5.916;2023-04-28T10:18:45;100773.16;;;12.86;87.84
74329;BME280;62749;51.982;5.916;2023-04-28T10:21:18;100772.06;;;12.90;88.11
74329;BME280;62749;51.982;5.916;2023-04-28T10:24:09;100769.69;;;13.01;88.35
74329;BME280;62749;51.982;5.916;2023-04-28T10:27:03;100775.00;;;13.01;88.38
74329;BME280;62749;51.982;5.916;2023-04-28T10:29:34;100772.09;;;13.06;88.56
74329;BME280;62749;51.982;5.916;2023-04-28T10:32:17;100779.13;;;13.07;89.24
74329;BME280;62749;51.982;5.916;2023-04-28T10:34:48;100775.97;;;13.16;89.25
74329;BME280;62749;51.982;5.916;2023-04-28T10:40:32;100765.53;;;13.13;90.66
74329;BME280;62749;51.982;5.916;2023-04-28T10:43:05;100769.97;;;13.13;90.90
74329;BME280;62749;51.982;5.916;2023-04-28T10:46:00;100764.69;;;13.13;91.26
74329;BME280;62749;51.982;5.916;2023-04-28T10:48:55;100776.81;;;13.17;92.37
74329;BME280;62749;51.982;5.916;2023-04-28T10:51:29;100779.56;;;13.15;92.45
74329;BME280;62749;51.982;5.916;2023-04-28T10:54:09;100784.88;;;13.15;92.89
74329;BME280;62749;51.982;5.916;2023-04-28T10:59:43;100774.38;;;13.30;93.38
74329;BME280;62749;51.982;5.916;2023-04-28T11:02:37;100770.63;;;13.34;93.02
74329;BME280;62749;51.982;5.916;2023-04-28T11:05:15;100764.69;;;13.46;93.10
74329;BME280;62749;51.982;5.916;2023-04-28T11:11:12;100768.44;;;13.58;93.45
74329;BME280;62749;51.982;5.916;2023-04-28T11:13:42;100762.31;;;13.58;93.37
74329;BME280;62749;51.982;5.916;2023-04-28T11:16:20;100766.31;;;13.65;93.68
74329;BME280;62749;51.982;5.916;2023-04-28T11:18:55;100767.78;;;13.71;93.60
74329;BME280;62749;51.982;5.916;2023-04-28T11:21:26;100768.38;;;13.76;94.10
74329;BME280;62749;51.982;5.916;2023-04-28T11:23:56;100759.38;;;13.78;93.82
74329;BME280;62749;51.982;5.916;2023-04-28T11:26:27;100761.72;;;13.85;93.65
74329;BME280;62749;51.982;5.916;2023-04-28T11:28:57;100771.63;;;13.97;93.42
74329;BME280;62749;51.982;5.916;2023-04-28T11:31:30;100769.75;;;13.99;93.55
74329;BME280;62749;51.982;5.916;2023-04-28T11:34:03;100770.00;;;13.94;93.71
74329;BME280;62749;51.982;5.916;2023-04-28T11:36:35;100769.03;;;13.95;94.18
74329;BME280;62749;51.982;5.916;2023-04-28T11:39:06;100766.16;;;14.00;93.88
74329;BME280;62749;51.982;5.916;2023-04-28T11:41:49;100772.84;;;13.91;93.99
74329;BME280;62749;51.982;5.916;2023-04-28T11:44:21;100777.91;;;13.80;94.18
74329;BME280;62749;51.982;5.916;2023-04-28T11:46:54;100775.66;;;13.72;94.66
74329;BME280;62749;51.982;5.916;2023-04-28T11:49:26;100773.19;;;13.69;95.52
74329;BME280;62749;51.982;5.916;2023-04-28T11:51:57;100772.66;;;13.78;95.70
74329;BME280;62749;51.982;5.916;2023-04-28T11:54:28;100772.59;;;13.80;96.15
74329;BME280;62749;51.982;5.916;2023-04-28T11:56:59;100770.00;;;13.78;95.48
74329;BME280;62749;51.982;5.916;2023-04-28T11:59:32;100772.31;;;13.85;95.07
74329;BME280;62749;51.982;5.916;2023-04-28T12:02:05;100772.06;;;13.89;94.68
74329;BME280;62749;51.982;5.916;2023-04-28T12:04:36;100769.81;;;13.98;94.39
74329;BME280;62749;51.982;5.916;2023-04-28T12:07:08;100769.66;;;14.01;94.24
74329;BME280;62749;51.982;5.916;2023-04-28T12:09:40;100770.69;;;13.98;93.85
74329;BME280;62749;51.982;5.916;2023-04-28T12:12:12;100768.75;;;13.86;93.80
74329;BME280;62749;51.982;5.916;2023-04-28T12:14:55;100766.78;;;13.73;94.56
74329;BME280;62749;51.982;5.916;2023-04-28T12:17:29;100765.72;;;13.76;95.07
74329;BME280;62749;51.982;5.916;2023-04-28T12:20:01;100765.84;;;13.74;95.08
74329;BME280;62749;51.982;5.916;2023-04-28T12:22:43;100767.50;;;13.75;95.41
74329;BME280;62749;51.982;5.916;2023-04-28T12:25:15;100770.53;;;13.69;95.84
74329;BME280;62749;51.982;5.916;2023-04-28T12:27:58;100772.25;;;13.70;96.25
74329;BME280;62749;51.982;5.916;2023-04-28T12:30:30;100777.63;;;13.69;96.68
74329;BME280;62749;51.982;5.916;2023-04-28T12:33:02;100770.25;;;13.58;96.66
74329;BME280;62749;51.982;5.916;2023-04-28T12:35:32;100762.56;;;13.53;96.74
74329;BME280;62749;51.982;5.916;2023-04-28T12:38:01;100771.31;;;13.55;97.14
74329;BME280;62749;51.982;5.916;2023-04-28T12:40:31;100768.38;;;13.60;97.27
74329;BME280;62749;51.982;5.916;2023-04-28T12:43:00;100771.97;;;13.75;97.53
74329;BME280;62749;51.982;5.916;2023-04-28T12:45:30;100769.22;;;13.76;96.86
74329;BME280;62749;51.982;5.916;2023-04-28T12:48:02;100774.63;;;13.75;97.15
74329;BME280;62749;51.982;5.916;2023-04-28T12:50:32;100773.09;;;13.71;96.83
74329;BME280;62749;51.982;5.916;2023-04-28T12:53:02;100771.78;;;13.62;97.05
74329;BME280;62749;51.982;5.916;2023-04-28T12:55:31;100784.56;;;13.71;97.04
74329;BME280;62749;51.982;5.916;2023-04-28T12:58:01;100775.47;;;13.75;97.02
74329;BME280;62749;51.982;5.916;2023-04-28T13:00:30;100767.97;;;13.68;96.91
74329;BME280;62749;51.982;5.916;2023-04-28T13:03:02;100774.13;;;13.68;97.85
74329;BME280;62749;51.982;5.916;2023-04-28T13:05:32;100776.88;;;13.67;97.42
74329;BME280;62749;51.982;5.916;2023-04-28T13:08:01;100785.06;;;13.62;97.43
74329;BME280;62749;51.982;5.916;2023-04-28T13:10:31;100778.22;;;13.58;97.26
74329;BME280;62749;51.982;5.916;2023-04-28T13:13:00;100775.56;;;13.58;97.17
74329;BME280;62749;51.982;5.916;2023-04-28T13:15:30;100779.59;;;13.65;97.36
74329;BME280;62749;51.982;5.916;2023-04-28T13:18:04;100780.78;;;13.75;97.48
74329;BME280;62749;51.982;5.916;2023-04-28T13:20:33;100769.06;;;13.79;97.27
74329;BME280;62749;51.982;5.916;2023-04-28T13:23:02;100770.53;;;13.69;96.22
74329;BME280;62749;51.982;5.916;2023-04-28T13:25:32;100766.56;;;13.76;96.38